createdAt,value
2018-09-17T00:00:04.668Z,10.45
2018-09-17T00:00:38.163Z,7.60
2018-09-17T00:01:11.668Z,12.28
2018-09-17T00:01:45.172Z,8.08
2018-09-17T00:02:18.708Z,8.00
2018-09-17T00:02:52.225Z,7.80
2018-09-17T00:03:25.738Z,8.10
2018-09-17T00:03:59.432Z,8.10
2018-09-17T00:04:32.984Z,10.10
2018-09-17T00:05:06.596Z,8.18
2018-09-17T00:05:40.092Z,8.20
2018-09-17T00:06:13.608Z,7.87
2018-09-17T00:06:47.102Z,9.75
2018-09-17T00:07:20.626Z,7.37
2018-09-17T00:07:54.148Z,9.33
2018-09-17T00:08:27.648Z,7.87
2018-09-17T00:09:01.192Z,8.95
2018-09-17T00:09:34.840Z,7.72
2018-09-17T00:10:08.568Z,9.10
2018-09-17T00:10:42.098Z,7.80
2018-09-17T00:11:15.650Z,9.08
2018-09-17T00:11:49.188Z,8.60
2018-09-17T00:12:22.712Z,7.60
2018-09-17T00:12:56.220Z,7.92
2018-09-17T00:13:29.688Z,7.83
2018-09-17T00:14:03.224Z,9.08
2018-09-17T00:14:36.738Z,8.68
2018-09-17T00:15:10.253Z,7.97
2018-09-17T00:15:43.791Z,7.67
2018-09-17T00:16:17.382Z,9.38
2018-09-17T00:16:50.885Z,7.60
2018-09-17T00:17:24.422Z,7.60
2018-09-17T00:17:57.910Z,7.55
2018-09-17T00:18:31.426Z,7.37
2018-09-17T00:19:05.293Z,7.58
2018-09-17T00:19:38.777Z,7.67
2018-09-17T00:20:12.309Z,7.20
2018-09-17T00:20:45.852Z,8.90
2018-09-17T00:21:19.371Z,7.72
2018-09-17T00:21:52.848Z,8.38
2018-09-17T00:22:26.354Z,7.72
2018-09-17T00:22:59.954Z,8.80
2018-09-17T00:23:33.440Z,7.65
2018-09-17T00:24:07.116Z,7.87
2018-09-17T00:24:40.804Z,7.60
2018-09-17T00:25:14.366Z,8.25
2018-09-17T00:25:47.932Z,7.95
2018-09-17T00:26:21.438Z,10.00
2018-09-17T00:26:54.947Z,7.97
2018-09-17T00:27:28.476Z,8.53
2018-09-17T00:28:01.970Z,7.70
2018-09-17T00:28:35.458Z,7.90
2018-09-17T00:29:09.004Z,7.65
2018-09-17T00:29:42.537Z,7.60
2018-09-17T00:30:16.040Z,9.38
2018-09-17T00:30:49.572Z,9.13
2018-09-17T00:31:23.077Z,7.70
2018-09-17T00:31:56.572Z,10.98
2018-09-17T00:32:30.074Z,9.58
2018-09-17T00:33:03.578Z,8.58
2018-09-17T00:33:37.096Z,8.30
2018-09-17T00:34:10.620Z,9.23
2018-09-17T00:34:44.140Z,7.92
2018-09-17T00:35:17.651Z,8.45
2018-09-17T00:35:51.140Z,12.88
2018-09-17T00:36:24.672Z,8.48
2018-09-17T00:36:58.160Z,8.83
2018-09-17T00:37:31.728Z,9.88
2018-09-17T00:38:05.312Z,7.72
2018-09-17T00:38:38.832Z,9.03
2018-09-17T00:39:12.788Z,8.25
2018-09-17T00:39:46.323Z,8.78
2018-09-17T00:40:19.888Z,9.83
2018-09-17T00:40:53.512Z,8.63
2018-09-17T00:41:27.012Z,8.90
2018-09-17T00:42:00.526Z,9.53
2018-09-17T00:42:34.052Z,9.63
2018-09-17T00:43:07.584Z,8.35
2018-09-17T00:43:41.104Z,8.23
2018-09-17T00:44:14.669Z,8.93
2018-09-17T00:44:48.177Z,8.75
2018-09-17T00:45:21.690Z,10.28
2018-09-17T00:45:55.192Z,7.90
2018-09-17T00:46:28.698Z,9.28
2018-09-17T00:47:02.256Z,8.90
2018-09-17T00:47:35.809Z,8.23
2018-09-17T00:48:09.356Z,9.15
2018-09-17T00:48:42.870Z,8.23
2018-09-17T00:49:16.351Z,10.23
2018-09-17T00:49:49.860Z,8.58
2018-09-17T00:50:23.385Z,8.85
2018-09-17T00:50:56.923Z,8.55
2018-09-17T00:51:30.523Z,9.48
2018-09-17T00:52:04.029Z,8.45
2018-09-17T00:52:37.549Z,10.43
2018-09-17T00:53:11.056Z,8.25
2018-09-17T00:53:44.576Z,8.98
2018-09-17T00:54:18.660Z,9.28
2018-09-17T00:54:52.218Z,8.35
2018-09-17T00:55:25.682Z,8.65
2018-09-17T00:55:59.184Z,8.38
2018-09-17T00:56:32.742Z,8.75
2018-09-17T00:57:06.308Z,8.35
2018-09-17T00:57:39.857Z,8.38
2018-09-17T00:58:13.340Z,8.43
2018-09-17T00:58:46.832Z,9.30
2018-09-17T00:59:20.343Z,12.25
2018-09-17T00:59:53.862Z,8.68
2018-09-17T01:00:27.382Z,8.70
2018-09-17T01:01:00.956Z,8.25
2018-09-17T01:01:34.511Z,11.88
2018-09-17T01:02:08.294Z,10.95
2018-09-17T01:02:41.820Z,9.43
2018-09-17T01:03:15.337Z,8.30
2018-09-17T01:03:48.840Z,8.18
2018-09-17T01:04:22.348Z,11.08
2018-09-17T01:04:55.901Z,8.33
2018-09-17T01:05:29.409Z,8.03
2018-09-17T01:06:02.956Z,8.78
2018-09-17T01:06:36.516Z,7.92
2018-09-17T01:07:10.034Z,8.28
2018-09-17T01:07:43.556Z,10.23
2018-09-17T01:08:17.069Z,8.50
2018-09-17T01:08:50.584Z,8.13
2018-09-17T01:09:29.904Z,8.18
2018-09-17T01:10:03.740Z,8.23
2018-09-17T01:10:37.244Z,7.60
2018-09-17T01:11:10.785Z,8.75
2018-09-17T01:11:44.311Z,9.55
2018-09-17T01:12:17.856Z,8.40
2018-09-17T01:12:51.376Z,8.28
2018-09-17T01:13:24.900Z,8.68
2018-09-17T01:13:58.430Z,8.35
2018-09-17T01:14:31.951Z,7.75
2018-09-17T01:15:05.568Z,8.43
2018-09-17T01:15:39.064Z,8.45
2018-09-17T01:16:12.854Z,8.50
2018-09-17T01:16:46.394Z,8.15
2018-09-17T01:17:19.902Z,11.60
2018-09-17T01:17:53.452Z,10.28
2018-09-17T01:18:26.933Z,8.93
2018-09-17T01:19:00.532Z,8.75
2018-09-17T01:19:34.138Z,8.98
2018-09-17T01:20:08.078Z,11.00
2018-09-17T01:20:41.610Z,11.18
2018-09-17T01:21:15.114Z,8.55
2018-09-17T01:21:48.632Z,7.95
2018-09-17T01:22:22.191Z,8.58
2018-09-17T01:22:55.709Z,9.28
2018-09-17T01:23:29.195Z,7.90
2018-09-17T01:24:02.725Z,8.30
2018-09-17T01:24:36.230Z,11.88
2018-09-17T01:25:09.776Z,7.90
2018-09-17T01:25:43.372Z,8.00
2018-09-17T01:26:16.894Z,10.80
2018-09-17T01:26:50.430Z,8.95
2018-09-17T01:27:23.972Z,8.60
2018-09-17T01:27:57.510Z,8.05
2018-09-17T01:28:31.044Z,8.33
2018-09-17T01:29:04.583Z,8.43
2018-09-17T01:29:38.080Z,8.35
2018-09-17T01:30:11.608Z,7.80
2018-09-17T01:30:45.143Z,8.60
2018-09-17T01:31:18.754Z,8.60
2018-09-17T01:31:52.329Z,8.60
2018-09-17T01:32:25.847Z,11.05
2018-09-17T01:32:59.356Z,9.13
2018-09-17T01:33:32.887Z,8.50
2018-09-17T01:34:06.602Z,8.95
2018-09-17T01:34:40.152Z,8.05
2018-09-17T01:35:13.740Z,8.30
2018-09-17T01:35:47.259Z,10.32
2018-09-17T01:36:20.797Z,11.70
2018-09-17T01:36:54.675Z,8.75
2018-09-17T01:37:28.189Z,8.13
2018-09-17T01:38:01.718Z,8.35
2018-09-17T01:38:35.237Z,8.63
2018-09-17T01:39:10.108Z,9.38
2018-09-17T01:39:43.631Z,8.78
2018-09-17T01:40:17.235Z,10.98
2018-09-17T01:40:50.819Z,10.50
2018-09-17T01:41:24.638Z,10.28
2018-09-17T01:41:58.180Z,8.58
2018-09-17T01:42:31.700Z,8.30
2018-09-17T01:43:05.855Z,9.03
2018-09-17T01:43:39.434Z,10.63
2018-09-17T01:44:13.023Z,9.40
2018-09-17T01:44:46.524Z,8.53
2018-09-17T01:45:20.020Z,10.25
2018-09-17T01:45:53.602Z,8.45
2018-09-17T01:46:27.108Z,10.45
2018-09-17T01:47:00.636Z,10.53
2018-09-17T01:47:34.146Z,9.33
2018-09-17T01:48:07.680Z,9.80
2018-09-17T01:48:41.152Z,12.63
2018-09-17T01:49:14.650Z,8.73
2018-09-17T01:49:48.159Z,10.65
2018-09-17T01:50:21.665Z,10.85
2018-09-17T01:50:55.203Z,9.20
2018-09-17T01:51:28.697Z,10.48
2018-09-17T01:52:02.188Z,9.40
2018-09-17T01:52:35.681Z,10.82
2018-09-17T01:53:09.188Z,11.38
2018-09-17T01:53:42.692Z,9.18
2018-09-17T01:54:16.197Z,9.45
2018-09-17T01:54:49.712Z,10.98
2018-09-17T01:55:23.299Z,10.80
2018-09-17T01:55:56.812Z,9.05
2018-09-17T01:56:30.367Z,12.65
2018-09-17T01:57:03.916Z,11.03
2018-09-17T01:57:37.424Z,13.43
2018-09-17T01:58:10.957Z,8.78
2018-09-17T01:58:44.456Z,9.70
2018-09-17T01:59:17.976Z,8.98
2018-09-17T01:59:51.497Z,9.10
2018-09-17T02:00:25.067Z,11.05
2018-09-17T02:00:58.575Z,10.48
2018-09-17T02:01:32.098Z,11.40
2018-09-17T02:02:07.031Z,11.75
2018-09-17T02:02:40.566Z,9.13
2018-09-17T02:03:14.050Z,12.43
2018-09-17T02:03:47.565Z,10.43
2018-09-17T02:04:21.090Z,9.20
2018-09-17T02:04:54.625Z,10.50
2018-09-17T02:05:28.134Z,9.55
2018-09-17T02:06:01.646Z,9.13
2018-09-17T02:06:35.159Z,9.20
2018-09-17T02:07:08.672Z,10.10
2018-09-17T02:07:42.186Z,10.28
2018-09-17T02:08:15.696Z,13.18
2018-09-17T02:08:49.378Z,9.33
2018-09-17T02:09:22.838Z,9.60
2018-09-17T02:09:56.362Z,12.60
2018-09-17T02:10:29.866Z,8.88
2018-09-17T02:11:03.422Z,9.43
2018-09-17T02:11:37.005Z,12.10
2018-09-17T02:12:11.666Z,9.10
2018-09-17T02:12:45.194Z,9.63
2018-09-17T02:13:18.769Z,11.00
2018-09-17T02:13:52.447Z,9.35
2018-09-17T02:14:25.958Z,10.50
2018-09-17T02:14:59.539Z,11.55
2018-09-17T02:15:33.085Z,10.40
2018-09-17T02:16:06.933Z,12.28
2018-09-17T02:16:40.512Z,11.15
2018-09-17T02:17:14.043Z,13.18
2018-09-17T02:17:47.517Z,10.50
2018-09-17T02:18:21.039Z,12.82
2018-09-17T02:18:54.668Z,13.75
2018-09-17T02:19:28.187Z,10.33
2018-09-17T02:20:01.693Z,11.68
2018-09-17T02:20:35.207Z,10.58
2018-09-17T02:21:08.757Z,10.03
2018-09-17T02:21:42.272Z,14.95
2018-09-17T02:22:15.819Z,11.05
2018-09-17T02:22:49.289Z,12.93
2018-09-17T02:23:22.777Z,11.15
2018-09-17T02:23:56.313Z,11.38
2018-09-17T02:24:29.823Z,10.72
2018-09-17T02:25:03.397Z,11.53
2018-09-17T02:25:36.928Z,9.70
2018-09-17T02:26:10.563Z,12.00
2018-09-17T02:26:44.137Z,15.88
2018-09-17T02:27:17.715Z,12.00
2018-09-17T02:27:51.287Z,10.03
2018-09-17T02:28:24.808Z,11.08
2018-09-17T02:28:58.289Z,10.95
2018-09-17T02:29:31.841Z,11.33
2018-09-17T02:30:05.455Z,10.90
2018-09-17T02:30:39.039Z,13.25
2018-09-17T02:31:12.526Z,13.50
2018-09-17T02:31:46.044Z,9.80
2018-09-17T02:32:19.572Z,11.90
2018-09-17T02:32:53.085Z,11.50
2018-09-17T02:33:26.581Z,9.70
2018-09-17T02:34:00.086Z,10.43
2018-09-17T02:34:33.571Z,13.00
2018-09-17T02:35:07.137Z,12.50
2018-09-17T02:35:40.677Z,11.88
2018-09-17T02:36:14.423Z,14.80
2018-09-17T02:36:47.927Z,10.82
2018-09-17T02:37:21.464Z,11.78
2018-09-17T02:37:55.000Z,11.50
2018-09-17T02:38:28.520Z,10.98
2018-09-17T02:39:02.322Z,12.35
2018-09-17T02:39:35.843Z,9.73
2018-09-17T02:40:16.399Z,11.33
2018-09-17T02:40:49.953Z,11.88
2018-09-17T02:41:23.495Z,11.28
2018-09-17T02:41:57.013Z,14.50
2018-09-17T02:42:30.530Z,11.50
2018-09-17T02:43:04.064Z,13.80
2018-09-17T02:43:37.660Z,13.22
2018-09-17T02:44:11.182Z,12.75
2018-09-17T02:44:44.743Z,10.30
2018-09-17T02:45:19.297Z,16.25
2018-09-17T02:45:52.861Z,11.08
2018-09-17T02:46:26.428Z,16.37
2018-09-17T02:46:59.955Z,11.57
2018-09-17T02:47:33.493Z,10.23
2018-09-17T02:48:07.054Z,10.28
2018-09-17T02:48:40.569Z,12.60
2018-09-17T02:49:14.140Z,14.38
2018-09-17T02:49:47.665Z,12.80
2018-09-17T02:50:21.216Z,12.68
2018-09-17T02:50:54.730Z,13.88
2018-09-17T02:51:28.205Z,11.48
2018-09-17T02:52:01.691Z,14.95
2018-09-17T02:52:35.177Z,12.45
2018-09-17T02:53:08.681Z,10.32
2018-09-17T02:53:42.273Z,10.55
2018-09-17T02:54:15.772Z,12.33
2018-09-17T02:54:49.302Z,14.33
2018-09-17T02:55:22.819Z,15.85
2018-09-17T02:55:56.367Z,12.73
2018-09-17T02:56:29.870Z,19.80
2018-09-17T02:57:03.402Z,11.05
2018-09-17T02:57:37.297Z,10.95
2018-09-17T02:58:10.816Z,12.13
2018-09-17T02:58:44.341Z,12.43
2018-09-17T02:59:17.827Z,13.47
2018-09-17T02:59:51.322Z,11.68
2018-09-17T03:00:24.847Z,11.28
2018-09-17T03:00:58.377Z,10.58
2018-09-17T03:01:31.923Z,10.25
2018-09-17T03:02:05.516Z,13.45
2018-09-17T03:02:39.170Z,13.55
2018-09-17T03:03:12.696Z,11.48
2018-09-17T03:03:46.250Z,14.28
2018-09-17T03:04:19.788Z,13.68
2018-09-17T03:04:53.304Z,10.50
2018-09-17T03:05:26.865Z,12.03
2018-09-17T03:06:00.376Z,11.05
2018-09-17T03:06:33.921Z,10.90
2018-09-17T03:07:07.467Z,12.80
2018-09-17T03:07:40.984Z,13.15
2018-09-17T03:08:14.537Z,15.53
2018-09-17T03:08:48.081Z,11.75
2018-09-17T03:09:21.656Z,11.53
2018-09-17T03:09:55.187Z,11.05
2018-09-17T03:10:28.731Z,10.58
2018-09-17T03:11:02.276Z,10.65
2018-09-17T03:11:35.960Z,10.38
2018-09-17T03:12:09.497Z,11.00
2018-09-17T03:12:43.046Z,10.63
2018-09-17T03:13:16.527Z,13.43
2018-09-17T03:13:50.018Z,12.60
2018-09-17T03:14:29.712Z,15.63
2018-09-17T03:15:26.840Z,11.28
2018-09-17T03:16:00.351Z,11.75
2018-09-17T03:16:39.437Z,10.55
2018-09-17T03:17:14.083Z,10.45
2018-09-17T03:17:47.648Z,10.60
2018-09-17T03:18:49.999Z,14.98
2018-09-17T03:19:23.489Z,11.25
2018-09-17T03:19:57.031Z,11.68
2018-09-17T03:20:30.623Z,12.20
2018-09-17T03:21:05.201Z,10.85
2018-09-17T03:21:38.702Z,10.38
2018-09-17T03:22:13.000Z,10.93
2018-09-17T03:22:46.544Z,11.75
2018-09-17T03:23:20.057Z,11.75
2018-09-17T03:23:53.961Z,12.47
2018-09-17T03:24:27.536Z,11.40
2018-09-17T03:25:01.082Z,11.22
2018-09-17T03:25:34.606Z,11.55
2018-09-17T03:26:08.148Z,12.00
2018-09-17T03:26:41.710Z,10.88
2018-09-17T03:27:15.231Z,10.90
2018-09-17T03:27:48.766Z,12.15
2018-09-17T03:28:22.457Z,12.15
2018-09-17T03:28:55.984Z,12.35
2018-09-17T03:29:29.484Z,11.40
2018-09-17T03:30:03.360Z,13.22
2018-09-17T03:30:36.920Z,11.38
2018-09-17T03:31:10.475Z,12.20
2018-09-17T03:31:44.041Z,12.07
2018-09-17T03:32:17.552Z,11.25
2018-09-17T03:32:51.076Z,14.65
2018-09-17T03:33:24.710Z,12.78
2018-09-17T03:33:58.247Z,12.35
2018-09-17T03:34:31.868Z,12.33
2018-09-17T03:35:05.584Z,11.73
2018-09-17T03:35:39.136Z,12.47
2018-09-17T03:36:12.710Z,11.83
2018-09-17T03:36:46.234Z,12.43
2018-09-17T03:37:24.620Z,12.45
2018-09-17T03:38:25.876Z,12.43
2018-09-17T03:38:59.381Z,11.78
2018-09-17T03:39:32.880Z,11.53
2018-09-17T03:40:06.447Z,11.63
2018-09-17T03:40:39.999Z,12.07
2018-09-17T03:41:14.039Z,13.27
2018-09-17T03:41:47.641Z,12.53
2018-09-17T03:42:21.162Z,11.68
2018-09-17T03:42:54.687Z,12.35
2018-09-17T03:43:28.332Z,13.40
2018-09-17T03:44:01.846Z,12.07
2018-09-17T03:44:35.339Z,14.20
2018-09-17T03:45:08.876Z,12.07
2018-09-17T03:45:42.419Z,11.78
2018-09-17T03:46:15.967Z,11.60
2018-09-17T03:46:49.524Z,15.23
2018-09-17T03:47:22.999Z,12.05
2018-09-17T03:47:56.540Z,11.75
2018-09-17T03:48:31.142Z,11.55
2018-09-17T03:49:04.687Z,13.53
2018-09-17T03:49:38.203Z,14.07
2018-09-17T03:50:11.724Z,11.73
2018-09-17T03:50:45.551Z,11.73
2018-09-17T03:51:19.074Z,12.40
2018-09-17T03:51:52.592Z,13.43
2018-09-17T03:52:26.148Z,14.55
2018-09-17T03:52:59.657Z,12.58
2018-09-17T03:53:33.506Z,14.95
2018-09-17T03:54:07.081Z,11.53
2018-09-17T03:54:40.624Z,11.80
2018-09-17T03:55:14.192Z,13.58
2018-09-17T03:55:47.728Z,11.55
2018-09-17T03:56:21.247Z,11.20
2018-09-17T03:56:54.768Z,13.95
2018-09-17T03:57:28.266Z,12.15
2018-09-17T03:58:01.796Z,13.95
2018-09-17T03:58:35.339Z,12.60
2018-09-17T03:59:08.873Z,16.85
2018-09-17T03:59:42.398Z,14.95
2018-09-17T04:00:15.904Z,12.78
2018-09-17T04:00:49.718Z,11.55
2018-09-17T04:01:23.216Z,13.78
2018-09-17T04:01:56.754Z,13.93
2018-09-17T04:02:30.322Z,12.73
2018-09-17T04:03:03.832Z,13.85
2018-09-17T04:03:37.348Z,14.58
2018-09-17T04:04:10.932Z,12.40
2018-09-17T04:04:44.422Z,13.08
2018-09-17T04:05:17.943Z,15.23
2018-09-17T04:05:51.432Z,12.25
2018-09-17T04:06:24.976Z,13.95
2018-09-17T04:06:58.559Z,12.37
2018-09-17T04:07:32.040Z,13.65
2018-09-17T04:08:05.560Z,11.73
2018-09-17T04:08:39.060Z,13.70
2018-09-17T04:09:12.631Z,12.80
2018-09-17T04:09:46.166Z,12.55
2018-09-17T04:10:19.698Z,14.33
2018-09-17T04:10:53.266Z,11.95
2018-09-17T04:11:26.768Z,11.28
2018-09-17T04:12:00.392Z,14.03
2018-09-17T04:12:33.882Z,12.85
2018-09-17T04:13:08.011Z,12.35
2018-09-17T04:13:41.522Z,16.25
2018-09-17T04:14:15.039Z,12.60
2018-09-17T04:14:48.558Z,15.40
2018-09-17T04:15:22.096Z,13.90
2018-09-17T04:15:55.666Z,12.10
2018-09-17T04:16:29.148Z,11.70
2018-09-17T04:17:02.665Z,11.35
2018-09-17T04:17:36.186Z,11.97
2018-09-17T04:18:09.730Z,13.13
2018-09-17T04:18:43.395Z,15.75
2018-09-17T04:19:16.928Z,13.53
2018-09-17T04:19:50.450Z,12.20
2018-09-17T04:20:24.013Z,14.85
2018-09-17T04:20:57.514Z,13.30
2018-09-17T04:21:31.025Z,12.70
2018-09-17T04:22:04.644Z,13.38
2018-09-17T04:22:38.234Z,15.03
2018-09-17T04:23:11.720Z,11.65
2018-09-17T04:23:45.282Z,12.05
2018-09-17T04:24:18.797Z,12.78
2018-09-17T04:24:52.320Z,11.40
2018-09-17T04:25:26.038Z,13.03
2018-09-17T04:25:59.564Z,12.95
2018-09-17T04:26:33.096Z,13.95
2018-09-17T04:27:06.688Z,14.45
2018-09-17T04:27:40.164Z,12.37
2018-09-17T04:28:13.718Z,12.88
2018-09-17T04:28:47.235Z,11.88
2018-09-17T04:29:20.764Z,14.25
2018-09-17T04:29:54.330Z,12.98
2018-09-17T04:30:27.854Z,14.38
2018-09-17T04:31:01.452Z,13.58
2018-09-17T04:31:34.999Z,15.30
2018-09-17T04:32:08.799Z,13.00
2018-09-17T04:32:42.410Z,11.88
2018-09-17T04:33:15.957Z,14.60
2018-09-17T04:33:49.484Z,14.20
2018-09-17T04:34:23.005Z,13.18
2018-09-17T04:34:56.532Z,14.15
2018-09-17T04:35:30.057Z,12.43
2018-09-17T04:36:03.596Z,12.85
2018-09-17T04:36:37.122Z,12.45
2018-09-17T04:37:10.709Z,14.15
2018-09-17T04:37:44.358Z,13.72
2018-09-17T04:38:17.856Z,16.40
2018-09-17T04:38:51.431Z,14.18
2018-09-17T04:39:26.080Z,13.65
2018-09-17T04:39:59.581Z,15.15
2018-09-17T04:40:33.099Z,13.75
2018-09-17T04:41:06.644Z,14.40
2018-09-17T04:41:40.211Z,11.80
2018-09-17T04:42:13.752Z,14.35
2018-09-17T04:42:47.265Z,16.67
2018-09-17T04:43:20.794Z,14.55
2018-09-17T04:43:54.316Z,13.98
2018-09-17T04:44:27.865Z,15.10
2018-09-17T04:45:01.423Z,18.40
2018-09-17T04:45:34.939Z,20.65
2018-09-17T04:46:08.463Z,17.50
2018-09-17T04:46:41.981Z,17.65
2018-09-17T04:47:15.502Z,13.85
2018-09-17T04:47:49.041Z,16.52
2018-09-17T04:48:22.560Z,12.68
2018-09-17T04:48:56.084Z,16.10
2018-09-17T04:49:29.574Z,15.95
2018-09-17T04:50:03.151Z,15.58
2018-09-17T04:50:36.689Z,15.13
2018-09-17T04:51:10.236Z,15.28
2018-09-17T04:51:43.765Z,17.48
2018-09-17T04:52:17.285Z,19.40
2018-09-17T04:52:50.807Z,15.72
2018-09-17T04:53:24.352Z,16.73
2018-09-17T04:53:57.878Z,15.68
2018-09-17T04:54:31.396Z,15.68
2018-09-17T04:55:04.911Z,17.27
2018-09-17T04:55:38.428Z,13.05
2018-09-17T04:56:11.922Z,14.53
2018-09-17T04:56:45.436Z,22.10
2018-09-17T04:57:19.240Z,14.20
2018-09-17T04:57:52.724Z,17.80
2018-09-17T04:58:26.266Z,14.95
2018-09-17T04:58:59.826Z,15.28
2018-09-17T04:59:33.347Z,14.55
2018-09-17T05:00:07.013Z,18.15
2018-09-17T05:00:40.576Z,16.50
2018-09-17T05:01:14.111Z,12.73
2018-09-17T05:01:47.642Z,19.52
2018-09-17T05:02:21.173Z,17.17
2018-09-17T05:02:54.692Z,13.72
2018-09-17T05:03:28.249Z,13.62
2018-09-17T05:04:01.766Z,17.40
2018-09-17T05:04:35.310Z,13.58
2018-09-17T05:05:08.825Z,14.78
2018-09-17T05:05:42.318Z,16.17
2018-09-17T05:06:15.843Z,14.98
2018-09-17T05:06:49.361Z,19.10
2018-09-17T05:07:22.956Z,15.18
2018-09-17T05:07:56.399Z,13.55
2018-09-17T05:08:29.920Z,18.20
2018-09-17T05:09:05.243Z,14.33
2018-09-17T05:09:38.749Z,15.48
2018-09-17T05:10:12.281Z,18.17
2018-09-17T05:10:45.845Z,14.38
2018-09-17T05:11:19.399Z,15.50
2018-09-17T05:11:52.952Z,15.15
2018-09-17T05:12:26.452Z,15.13
2018-09-17T05:13:00.047Z,15.75
2018-09-17T05:13:33.541Z,13.40
2018-09-17T05:14:07.083Z,12.88
2018-09-17T05:14:40.577Z,15.43
2018-09-17T05:15:14.098Z,17.62
2018-09-17T05:15:47.589Z,18.65
2018-09-17T05:16:21.095Z,19.40
2018-09-17T05:16:54.631Z,17.57
2018-09-17T05:17:28.185Z,18.77
2018-09-17T05:18:01.713Z,19.55
2018-09-17T05:18:35.217Z,19.27
2018-09-17T05:19:08.702Z,15.28
2018-09-17T05:19:42.201Z,15.85
2018-09-17T05:20:15.747Z,17.85
2018-09-17T05:20:49.376Z,15.90
2018-09-17T05:21:22.845Z,17.95
2018-09-17T05:21:56.357Z,18.10
2018-09-17T05:22:29.893Z,19.15
2018-09-17T05:23:03.455Z,16.15
2018-09-17T05:23:36.973Z,15.08
2018-09-17T05:24:10.659Z,15.93
2018-09-17T05:24:44.169Z,17.15
2018-09-17T05:25:17.858Z,21.52
2018-09-17T05:25:51.351Z,17.98
2018-09-17T05:26:24.899Z,17.40
2018-09-17T05:26:58.524Z,21.55
2018-09-17T05:27:31.989Z,18.30
2018-09-17T05:28:05.655Z,15.08
2018-09-17T05:28:39.155Z,15.63
2018-09-17T05:29:12.691Z,17.48
2018-09-17T05:29:46.205Z,17.20
2018-09-17T05:30:19.788Z,17.35
2018-09-17T05:30:53.319Z,17.77
2018-09-17T05:31:26.821Z,15.58
2018-09-17T05:32:00.357Z,17.27
2018-09-17T05:32:33.952Z,17.37
2018-09-17T05:33:07.485Z,17.55
2018-09-17T05:33:41.009Z,19.82
2018-09-17T05:34:14.549Z,18.05
2018-09-17T05:34:48.067Z,16.77
2018-09-17T05:35:21.593Z,16.27
2018-09-17T05:35:55.128Z,19.23
2018-09-17T05:36:28.663Z,14.58
2018-09-17T05:37:02.183Z,18.70
2018-09-17T05:37:35.725Z,16.87
2018-09-17T05:38:09.273Z,16.57
2018-09-17T05:38:42.787Z,21.20
2018-09-17T05:39:16.347Z,19.17
2018-09-17T05:39:49.871Z,17.12
2018-09-17T05:40:23.483Z,15.63
2018-09-17T05:40:56.997Z,17.62
2018-09-17T05:41:30.731Z,21.12
2018-09-17T05:42:04.288Z,17.30
2018-09-17T05:42:37.807Z,17.92
2018-09-17T05:43:11.292Z,17.95
2018-09-17T05:43:44.795Z,21.07
2018-09-17T05:44:18.318Z,25.45
2018-09-17T05:44:51.846Z,13.83
2018-09-17T05:45:25.384Z,17.77
2018-09-17T05:45:58.887Z,22.83
2018-09-17T05:46:32.517Z,21.27
2018-09-17T05:47:06.104Z,16.77
2018-09-17T05:47:39.657Z,16.85
2018-09-17T05:48:13.183Z,17.87
2018-09-17T05:48:46.662Z,20.08
2018-09-17T05:49:20.148Z,17.87
2018-09-17T05:49:53.630Z,17.45
2018-09-17T05:50:27.144Z,19.45
2018-09-17T05:51:00.688Z,23.18
2018-09-17T05:51:34.265Z,18.70
2018-09-17T05:52:07.776Z,21.35
2018-09-17T05:52:41.304Z,17.50
2018-09-17T05:53:14.821Z,18.73
2018-09-17T05:53:48.344Z,20.80
2018-09-17T05:54:21.873Z,20.77
2018-09-17T05:54:55.371Z,19.42
2018-09-17T05:55:28.860Z,18.48
2018-09-17T05:56:02.360Z,22.90
2018-09-17T05:56:35.846Z,21.17
2018-09-17T05:57:09.315Z,21.50
2018-09-17T05:57:42.880Z,17.77
2018-09-17T05:58:16.442Z,20.72
2018-09-17T05:58:49.971Z,19.30
2018-09-17T05:59:23.472Z,18.92
2018-09-17T05:59:56.965Z,17.55
2018-09-17T06:00:30.522Z,16.48
2018-09-17T06:01:04.085Z,17.15
2018-09-17T06:01:37.618Z,17.50
2018-09-17T06:02:11.140Z,20.95
2018-09-17T06:02:44.672Z,21.35
2018-09-17T06:03:18.193Z,19.57
2018-09-17T06:03:52.304Z,16.75
2018-09-17T06:04:25.844Z,18.30
2018-09-17T06:04:59.418Z,16.82
2018-09-17T06:05:32.970Z,16.65
2018-09-17T06:06:06.528Z,16.45
2018-09-17T06:06:40.040Z,16.42
2018-09-17T06:07:13.560Z,15.78
2018-09-17T06:07:47.127Z,16.67
2018-09-17T06:08:20.618Z,15.93
2018-09-17T06:08:54.210Z,15.40
2018-09-17T06:09:27.742Z,13.03
2018-09-17T06:10:01.283Z,14.50
2018-09-17T06:10:34.803Z,16.85
2018-09-17T06:11:08.614Z,16.87
2018-09-17T06:11:42.146Z,16.30
2018-09-17T06:12:15.605Z,19.65
2018-09-17T06:12:49.109Z,15.15
2018-09-17T06:13:22.655Z,15.03
2018-09-17T06:13:56.205Z,15.08
2018-09-17T06:14:29.744Z,19.80
2018-09-17T06:15:03.296Z,16.15
2018-09-17T06:15:36.833Z,16.20
2018-09-17T06:16:10.353Z,18.90
2018-09-17T06:16:43.940Z,21.57
2018-09-17T06:17:17.490Z,16.15
2018-09-17T06:17:50.987Z,18.20
2018-09-17T06:18:24.486Z,16.75
2018-09-17T06:18:58.020Z,17.37
2018-09-17T06:19:31.542Z,18.50
2018-09-17T06:20:05.166Z,17.90
2018-09-17T06:20:38.716Z,18.35
2018-09-17T06:21:12.215Z,12.95
2018-09-17T06:21:45.747Z,20.55
2018-09-17T06:22:19.284Z,15.83
2018-09-17T06:22:52.795Z,16.82
2018-09-17T06:23:26.355Z,16.95
2018-09-17T06:23:59.902Z,17.32
2018-09-17T06:24:33.442Z,19.17
2018-09-17T06:25:07.012Z,15.30
2018-09-17T06:25:40.540Z,14.60
2018-09-17T06:26:14.072Z,17.82
2018-09-17T06:26:47.605Z,15.63
2018-09-17T06:27:21.128Z,20.92
2018-09-17T06:27:54.735Z,14.43
2018-09-17T06:28:28.246Z,17.17
2018-09-17T06:29:01.766Z,17.40
2018-09-17T06:29:35.289Z,16.35
2018-09-17T06:30:08.872Z,18.35
2018-09-17T06:30:42.384Z,16.23
2018-09-17T06:31:15.900Z,16.10
2018-09-17T06:31:49.409Z,16.07
2018-09-17T06:32:22.904Z,16.07
2018-09-17T06:32:56.435Z,16.05
2018-09-17T06:33:29.992Z,14.35
2018-09-17T06:34:03.569Z,15.28
2018-09-17T06:34:37.069Z,17.75
2018-09-17T06:35:10.582Z,18.00
2018-09-17T06:35:44.098Z,15.60
2018-09-17T06:36:17.630Z,15.60
2018-09-17T06:36:51.128Z,15.70
2018-09-17T06:37:24.656Z,16.52
2018-09-17T06:37:58.188Z,15.05
2018-09-17T06:38:31.710Z,15.68
2018-09-17T06:39:07.863Z,16.48
2018-09-17T06:39:41.385Z,15.65
2018-09-17T06:40:14.959Z,18.05
2018-09-17T06:40:48.484Z,14.75
2018-09-17T06:41:22.021Z,17.30
2018-09-17T06:41:55.546Z,15.13
2018-09-17T06:42:29.069Z,17.07
2018-09-17T06:43:02.598Z,14.25
2018-09-17T06:43:36.136Z,18.10
2018-09-17T06:44:09.698Z,18.73
2018-09-17T06:44:43.184Z,13.53
2018-09-17T06:45:16.701Z,18.92
2018-09-17T06:45:50.598Z,16.40
2018-09-17T06:46:24.583Z,16.67
2018-09-17T06:46:58.116Z,18.10
2018-09-17T06:47:31.660Z,15.43
2018-09-17T06:48:05.200Z,14.35
2018-09-17T06:48:38.708Z,15.40
2018-09-17T06:49:12.225Z,16.27
2018-09-17T06:49:45.741Z,15.05
2018-09-17T06:50:19.235Z,16.25
2018-09-17T06:50:52.758Z,16.17
2018-09-17T06:51:26.332Z,15.10
2018-09-17T06:51:59.838Z,14.60
2018-09-17T06:52:33.357Z,14.60
2018-09-17T06:53:06.970Z,16.40
2018-09-17T06:53:40.546Z,15.68
2018-09-17T06:54:14.014Z,17.15
2018-09-17T06:54:47.574Z,13.08
2018-09-17T06:55:21.085Z,13.15
2018-09-17T06:55:54.686Z,15.98
2018-09-17T06:56:28.212Z,14.90
2018-09-17T06:57:01.736Z,17.40
2018-09-17T06:57:35.272Z,15.63
2018-09-17T06:58:08.784Z,17.40
2018-09-17T06:58:42.286Z,20.10
2018-09-17T06:59:15.780Z,14.93
2018-09-17T06:59:49.302Z,15.00
2018-09-17T07:00:22.792Z,17.15
2018-09-17T07:00:56.292Z,12.93
2018-09-17T07:01:29.783Z,15.80
2018-09-17T07:02:03.304Z,16.25
2018-09-17T07:02:36.852Z,15.50
2018-09-17T07:03:10.386Z,13.13
2018-09-17T07:03:43.920Z,15.55
2018-09-17T07:04:17.440Z,19.05
2018-09-17T07:04:50.967Z,15.78
2018-09-17T07:05:24.471Z,17.12
2018-09-17T07:05:57.994Z,16.60
2018-09-17T07:06:31.527Z,16.50
2018-09-17T07:07:05.426Z,17.37
2018-09-17T07:07:38.934Z,16.23
2018-09-17T07:08:12.462Z,16.85
2018-09-17T07:08:46.066Z,15.75
2018-09-17T07:09:19.568Z,15.18
2018-09-17T07:09:53.089Z,15.78
2018-09-17T07:10:26.627Z,17.40
2018-09-17T07:11:00.147Z,16.70
2018-09-17T07:11:33.636Z,19.65
2018-09-17T07:12:07.153Z,15.25
2018-09-17T07:12:40.675Z,15.32
2018-09-17T07:13:14.169Z,14.15
2018-09-17T07:13:47.689Z,15.60
2018-09-17T07:14:21.217Z,16.80
2018-09-17T07:14:54.787Z,15.50
2018-09-17T07:15:28.628Z,13.53
2018-09-17T07:16:02.166Z,15.72
2018-09-17T07:16:35.690Z,17.67
2018-09-17T07:17:09.205Z,19.25